sensor_id;sensor_type;location;lat;lon;timestamp;P1;durP1;ratioP1;P2;durP2;ratioP2
20181;SDS011;10250;50.756;6.172;2024-01-11T00:01:30;38.33;;;14.30;;
20181;SDS011;10250;50.756;6.172;2024-01-11T00:03:30;39.80;;;14.53;;
20181;SDS011;10250;50.756;6.172;2024-01-11T00:05:31;40.50;;;14.57;;
20181;SDS011;10250;50.756;6.172;2024-01-11T00:07:31;42.17;;;14.27;;
20181;SDS011;10250;50.756;6.172;2024-01-11T00:09:32;47.10;;;15.43;;
20181;SDS011;10250;50.756;6.172;2024-01-11T00:11:33;37.80;;;12.67;;
20181;SDS011;10250;50.756;6.172;2024-01-11T00:13:33;36.83;;;13.53;;
20181;SDS011;10250;50.756;6.172;2024-01-11T00:15:34;39.90;;;14.17;;
20181;SDS011;10250;50.756;6.172;2024-01-11T00:17:34;35.30;;;13.00;;
20181;SDS011;10250;50.756;6.172;2024-01-11T00:19:35;39.20;;;13.93;;
20181;SDS011;10250;50.756;6.172;2024-01-11T00:21:36;39.87;;;13.10;;
20181;SDS011;10250;50.756;6.172;2024-01-11T00:23:36;42.40;;;13.90;;
20181;SDS011;10250;50.756;6.172;2024-01-11T00:25:37;41.90;;;13.57;;
20181;SDS011;10250;50.756;6.172;2024-01-11T00:27:38;37.17;;;12.87;;
20181;SDS011;10250;50.756;6.172;2024-01-11T00:29:38;39.60;;;13.43;;
20181;SDS011;10250;50.756;6.172;2024-01-11T00:31:39;37.17;;;13.37;;
20181;SDS011;10250;50.756;6.172;2024-01-11T00:33:39;38.37;;;12.97;;
20181;SDS011;10250;50.756;6.172;2024-01-11T00:35:40;37.63;;;12.63;;
20181;SDS011;10250;50.756;6.172;2024-01-11T00:37:41;34.93;;;12.90;;
20181;SDS011;10250;50.756;6.172;2024-01-11T00:39:41;36.77;;;12.97;;
20181;SDS011;10250;50.756;6.172;2024-01-11T00:41:42;32.37;;;12.80;;
20181;SDS011;10250;50.756;6.172;2024-01-11T00:43:42;37.23;;;12.70;;
20181;SDS011;10250;50.756;6.172;2024-01-11T00:45:43;38.17;;;12.63;;
20181;SDS011;10250;50.756;6.172;2024-01-11T00:47:45;34.93;;;13.60;;
20181;SDS011;10250;50.756;6.172;2024-01-11T00:49:46;36.33;;;13.23;;
20181;SDS011;10250;50.756;6.172;2024-01-11T00:51:47;37.60;;;12.93;;
20181;SDS011;10250;50.756;6.172;2024-01-11T00:53:47;39.57;;;13.17;;
20181;SDS011;10250;50.756;6.172;2024-01-11T00:55:48;38.27;;;14.10;;
20181;SDS011;10250;50.756;6.172;2024-01-11T00:57:48;40.37;;;13.23;;
20181;SDS011;10250;50.756;6.172;2024-01-11T00:59:49;37.63;;;12.60;;
20181;SDS011;10250;50.756;6.172;2024-01-11T01:01:49;38.33;;;12.43;;
20181;SDS011;10250;50.756;6.172;2024-01-11T01:03:50;33.65;;;11.52;;
20181;SDS011;10250;50.756;6.172;2024-01-11T01:05:51;35.60;;;12.87;;
20181;SDS011;10250;50.756;6.172;2024-01-11T01:07:51;36.23;;;12.97;;
20181;SDS011;10250;50.756;6.172;2024-01-11T01:09:52;33.47;;;11.87;;
20181;SDS011;10250;50.756;6.172;2024-01-11T01:11:53;34.73;;;11.77;;
20181;SDS011;10250;50.756;6.172;2024-01-11T01:13:54;34.20;;;12.43;;
20181;SDS011;10250;50.756;6.172;2024-01-11T01:15:54;41.57;;;13.57;;
20181;SDS011;10250;50.756;6.172;2024-01-11T01:17:55;41.57;;;13.43;;
20181;SDS011;10250;50.756;6.172;2024-01-11T01:19:55;36.77;;;12.23;;
20181;SDS011;10250;50.756;6.172;2024-01-11T01:21:57;40.87;;;12.97;;
20181;SDS011;10250;50.756;6.172;2024-01-11T01:23:58;38.37;;;12.73;;
20181;SDS011;10250;50.756;6.172;2024-01-11T01:25:58;36.27;;;12.47;;
20181;SDS011;10250;50.756;6.172;2024-01-11T01:27:59;34.00;;;12.37;;
20181;SDS011;10250;50.756;6.172;2024-01-11T01:30:00;37.00;;;12.50;;
20181;SDS011;10250;50.756;6.172;2024-01-11T01:32:01;35.47;;;12.07;;
20181;SDS011;10250;50.756;6.172;2024-01-11T01:34:03;38.23;;;12.17;;
20181;SDS011;10250;50.756;6.172;2024-01-11T01:36:07;36.37;;;12.80;;
20181;SDS011;10250;50.756;6.172;2024-01-11T01:38:10;36.27;;;12.77;;
20181;SDS011;10250;50.756;6.172;2024-01-11T01:40:13;34.63;;;11.97;;
20181;SDS011;10250;50.756;6.172;2024-01-11T01:42:13;42.70;;;11.90;;
20181;SDS011;10250;50.756;6.172;2024-01-11T01:44:14;41.03;;;13.17;;
20181;SDS011;10250;50.756;6.172;2024-01-11T01:46:15;33.20;;;11.83;;
20181;SDS011;10250;50.756;6.172;2024-01-11T01:48:22;34.95;;;11.80;;
20181;SDS011;10250;50.756;6.172;2024-01-11T01:50:22;36.90;;;12.13;;
20181;SDS011;10250;50.756;6.172;2024-01-11T01:52:23;35.37;;;12.13;;
20181;SDS011;10250;50.756;6.172;2024-01-11T01:54:24;32.60;;;12.47;;
20181;SDS011;10250;50.756;6.172;2024-01-11T01:56:25;37.00;;;11.87;;
20181;SDS011;10250;50.756;6.172;2024-01-11T01:58:26;32.93;;;11.73;;
20181;SDS011;10250;50.756;6.172;2024-01-11T02:00:27;34.60;;;12.83;;
20181;SDS011;10250;50.756;6.172;2024-01-11T02:02:28;30.83;;;10.80;;
20181;SDS011;10250;50.756;6.172;2024-01-11T02:04:30;35.70;;;11.88;;
20181;SDS011;10250;50.756;6.172;2024-01-11T02:06:32;36.87;;;12.10;;
20181;SDS011;10250;50.756;6.172;2024-01-11T02:08:34;34.27;;;11.93;;
20181;SDS011;10250;50.756;6.172;2024-01-11T02:10:35;40.73;;;11.73;;
20181;SDS011;10250;50.756;6.172;2024-01-11T02:12:36;34.67;;;12.63;;
20181;SDS011;10250;50.756;6.172;2024-01-11T02:14:40;38.47;;;13.90;;
20181;SDS011;10250;50.756;6.172;2024-01-11T02:16:40;33.90;;;12.40;;
20181;SDS011;10250;50.756;6.172;2024-01-11T02:18:41;35.43;;;12.03;;
20181;SDS011;10250;50.756;6.172;2024-01-11T02:20:42;37.63;;;12.27;;
20181;SDS011;10250;50.756;6.172;2024-01-11T02:22:43;31.23;;;12.50;;
20181;SDS011;10250;50.756;6.172;2024-01-11T02:24:50;38.07;;;12.50;;
20181;SDS011;10250;50.756;6.172;2024-01-11T02:27:03;35.73;;;12.27;;
20181;SDS011;10250;50.756;6.172;2024-01-11T02:29:05;38.77;;;13.37;;
20181;SDS011;10250;50.756;6.172;2024-01-11T02:31:05;37.67;;;11.70;;
20181;SDS011;10250;50.756;6.172;2024-01-11T02:33:06;36.03;;;12.33;;
20181;SDS011;10250;50.756;6.172;2024-01-11T02:35:07;33.73;;;11.50;;
20181;SDS011;10250;50.756;6.172;2024-01-11T02:37:08;36.43;;;12.63;;
20181;SDS011;10250;50.756;6.172;2024-01-11T02:39:08;33.60;;;12.23;;
20181;SDS011;10250;50.756;6.172;2024-01-11T02:41:10;33.07;;;11.67;;
20181;SDS011;10250;50.756;6.172;2024-01-11T02:43:11;35.43;;;12.00;;
20181;SDS011;10250;50.756;6.172;2024-01-11T02:45:12;41.60;;;12.77;;
20181;SDS011;10250;50.756;6.172;2024-01-11T02:47:13;40.03;;;12.43;;
20181;SDS011;10250;50.756;6.172;2024-01-11T02:49:13;36.90;;;12.43;;
20181;SDS011;10250;50.756;6.172;2024-01-11T02:51:14;39.73;;;12.30;;
20181;SDS011;10250;50.756;6.172;2024-01-11T02:53:15;38.10;;;12.10;;
20181;SDS011;10250;50.756;6.172;2024-01-11T02:55:15;35.50;;;12.13;;
20181;SDS011;10250;50.756;6.172;2024-01-11T02:57:16;35.83;;;12.00;;
20181;SDS011;10250;50.756;6.172;2024-01-11T02:59:16;35.07;;;12.07;;
20181;SDS011;10250;50.756;6.172;2024-01-11T03:01:17;33.87;;;13.37;;
20181;SDS011;10250;50.756;6.172;2024-01-11T03:03:18;36.57;;;13.20;;
20181;SDS011;10250;50.756;6.172;2024-01-11T03:05:18;33.73;;;11.77;;
20181;SDS011;10250;50.756;6.172;2024-01-11T03:07:19;43.43;;;13.53;;
20181;SDS011;10250;50.756;6.172;2024-01-11T03:09:19;41.47;;;14.03;;
20181;SDS011;10250;50.756;6.172;2024-01-11T03:11:21;36.57;;;12.40;;
20181;SDS011;10250;50.756;6.172;2024-01-11T03:13:22;38.97;;;12.83;;
20181;SDS011;10250;50.756;6.172;2024-01-11T03:15:23;35.27;;;11.53;;
20181;SDS011;10250;50.756;6.172;2024-01-11T03:17:23;37.77;;;12.70;;
20181;SDS011;10250;50.756;6.172;2024-01-11T03:19:24;37.20;;;12.93;;
20181;SDS011;10250;50.756;6.172;2024-01-11T03:21:24;42.07;;;12.73;;
20181;SDS011;10250;50.756;6.172;2024-01-11T03:23:25;40.53;;;13.17;;
20181;SDS011;10250;50.756;6.172;2024-01-11T03:25:26;38.03;;;12.97;;
20181;SDS011;10250;50.756;6.172;2024-01-11T03:27:27;39.23;;;14.07;;
20181;SDS011;10250;50.756;6.172;2024-01-11T03:29:27;38.90;;;12.83;;
20181;SDS011;10250;50.756;6.172;2024-01-11T03:31:28;37.10;;;12.93;;
20181;SDS011;10250;50.756;6.172;2024-01-11T03:33:28;39.07;;;13.07;;
20181;SDS011;10250;50.756;6.172;2024-01-11T03:35:29;39.47;;;13.63;;
20181;SDS011;10250;50.756;6.172;2024-01-11T03:37:29;41.03;;;13.40;;
20181;SDS011;10250;50.756;6.172;2024-01-11T03:39:30;39.17;;;13.43;;
20181;SDS011;10250;50.756;6.172;2024-01-11T03:41:30;41.43;;;13.57;;
20181;SDS011;10250;50.756;6.172;2024-01-11T03:43:31;38.57;;;13.17;;
20181;SDS011;10250;50.756;6.172;2024-01-11T03:45:32;39.37;;;12.77;;
20181;SDS011;10250;50.756;6.172;2024-01-11T03:47:32;35.23;;;12.83;;
20181;SDS011;10250;50.756;6.172;2024-01-11T03:49:33;42.03;;;13.83;;
20181;SDS011;10250;50.756;6.172;2024-01-11T03:51:34;35.93;;;12.27;;
20181;SDS011;10250;50.756;6.172;2024-01-11T03:53:35;36.57;;;12.30;;
20181;SDS011;10250;50.756;6.172;2024-01-11T03:55:37;39.33;;;12.90;;
20181;SDS011;10250;50.756;6.172;2024-01-11T03:57:37;35.57;;;12.03;;
20181;SDS011;10250;50.756;6.172;2024-01-11T03:59:38;40.27;;;13.00;;
20181;SDS011;10250;50.756;6.172;2024-01-11T04:01:42;34.37;;;13.13;;
20181;SDS011;10250;50.756;6.172;2024-01-11T04:03:43;39.20;;;13.83;;
20181;SDS011;10250;50.756;6.172;2024-01-11T04:05:43;42.30;;;14.43;;
20181;SDS011;10250;50.756;6.172;2024-01-11T04:07:44;37.37;;;12.37;;
20181;SDS011;10250;50.756;6.172;2024-01-11T04:09:44;40.50;;;12.70;;
20181;SDS011;10250;50.756;6.172;2024-01-11T04:11:45;37.23;;;13.70;;
20181;SDS011;10250;50.756;6.172;2024-01-11T04:13:46;42.00;;;13.13;;
20181;SDS011;10250;50.756;6.172;2024-01-11T04:15:46;39.13;;;12.67;;
20181;SDS011;10250;50.756;6.172;2024-01-11T04:17:47;36.47;;;12.17;;
20181;SDS011;10250;50.756;6.172;2024-01-11T04:19:47;37.93;;;12.40;;
20181;SDS011;10250;50.756;6.172;2024-01-11T04:21:48;39.63;;;13.07;;
20181;SDS011;10250;50.756;6.172;2024-01-11T04:23:49;31.13;;;11.47;;
20181;SDS011;10250;50.756;6.172;2024-01-11T04:25:50;38.17;;;12.33;;
20181;SDS011;10250;50.756;6.172;2024-01-11T04:27:54;36.40;;;12.57;;
20181;SDS011;10250;50.756;6.172;2024-01-11T04:29:54;41.43;;;13.97;;
20181;SDS011;10250;50.756;6.172;2024-01-11T04:31:55;38.63;;;14.27;;
20181;SDS011;10250;50.756;6.172;2024-01-11T04:33:56;35.30;;;11.93;;
20181;SDS011;10250;50.756;6.172;2024-01-11T04:35:56;37.13;;;12.37;;
20181;SDS011;10250;50.756;6.172;2024-01-11T04:37:57;37.23;;;12.47;;
20181;SDS011;10250;50.756;6.172;2024-01-11T04:39:57;38.50;;;13.03;;
20181;SDS011;10250;50.756;6.172;2024-01-11T04:42:00;37.77;;;13.53;;
20181;SDS011;10250;50.756;6.172;2024-01-11T04:44:03;41.50;;;14.27;;
20181;SDS011;10250;50.756;6.172;2024-01-11T04:46:11;44.83;;;14.70;;
20181;SDS011;10250;50.756;6.172;2024-01-11T04:48:14;39.60;;;12.90;;
20181;SDS011;10250;50.756;6.172;2024-01-11T04:50:15;42.33;;;13.57;;
20181;SDS011;10250;50.756;6.172;2024-01-11T04:52:15;38.27;;;13.13;;
20181;SDS011;10250;50.756;6.172;2024-01-11T04:54:16;37.70;;;13.40;;
20181;SDS011;10250;50.756;6.172;2024-01-11T04:56:19;37.77;;;12.83;;
20181;SDS011;10250;50.756;6.172;2024-01-11T04:58:19;33.60;;;12.33;;
20181;SDS011;10250;50.756;6.172;2024-01-11T05:00:20;41.53;;;13.70;;
20181;SDS011;10250;50.756;6.172;2024-01-11T05:02:21;37.97;;;13.70;;
20181;SDS011;10250;50.756;6.172;2024-01-11T05:04:21;39.80;;;13.60;;
20181;SDS011;10250;50.756;6.172;2024-01-11T05:06:23;37.17;;;13.60;;
20181;SDS011;10250;50.756;6.172;2024-01-11T05:08:25;34.93;;;12.80;;
20181;SDS011;10250;50.756;6.172;2024-01-11T05:10:26;39.93;;;12.47;;
20181;SDS011;10250;50.756;6.172;2024-01-11T05:12:26;38.03;;;12.70;;
20181;SDS011;10250;50.756;6.172;2024-01-11T05:14:27;35.70;;;13.50;;
20181;SDS011;10250;50.756;6.172;2024-01-11T05:16:28;36.83;;;12.73;;
20181;SDS011;10250;50.756;6.172;2024-01-11T05:18:29;36.50;;;12.80;;
20181;SDS011;10250;50.756;6.172;2024-01-11T05:20:29;35.40;;;12.67;;
20181;SDS011;10250;50.756;6.172;2024-01-11T05:22:30;38.63;;;13.87;;
20181;SDS011;10250;50.756;6.172;2024-01-11T05:24:30;33.37;;;12.57;;
20181;SDS011;10250;50.756;6.172;2024-01-11T05:26:34;37.53;;;12.97;;
20181;SDS011;10250;50.756;6.172;2024-01-11T05:28:34;40.20;;;13.10;;
20181;SDS011;10250;50.756;6.172;2024-01-11T05:30:36;39.30;;;13.43;;
20181;SDS011;10250;50.756;6.172;2024-01-11T05:32:36;38.83;;;12.77;;
20181;SDS011;10250;50.756;6.172;2024-01-11T05:34:37;36.73;;;13.47;;
20181;SDS011;10250;50.756;6.172;2024-01-11T05:36:37;35.50;;;13.13;;
20181;SDS011;10250;50.756;6.172;2024-01-11T05:38:38;40.30;;;13.47;;
20181;SDS011;10250;50.756;6.172;2024-01-11T05:40:40;36.67;;;13.00;;
20181;SDS011;10250;50.756;6.172;2024-01-11T05:42:41;44.83;;;14.57;;
20181;SDS011;10250;50.756;6.172;2024-01-11T05:44:41;40.40;;;13.63;;
20181;SDS011;10250;50.756;6.172;2024-01-11T05:46:42;37.27;;;13.67;;
20181;SDS011;10250;50.756;6.172;2024-01-11T05:48:44;36.80;;;12.53;;
20181;SDS011;10250;50.756;6.172;2024-01-11T05:50:44;37.40;;;12.60;;
20181;SDS011;10250;50.756;6.172;2024-01-11T05:52:45;39.73;;;13.63;;
20181;SDS011;10250;50.756;6.172;2024-01-11T05:54:45;39.17;;;13.57;;
20181;SDS011;10250;50.756;6.172;2024-01-11T05:56:47;40.93;;;13.93;;
20181;SDS011;10250;50.756;6.172;2024-01-11T05:58:47;38.03;;;12.83;;
20181;SDS011;10250;50.756;6.172;2024-01-11T06:00:48;45.50;;;13.93;;
20181;SDS011;10250;50.756;6.172;2024-01-11T06:02:48;36.07;;;14.43;;
20181;SDS011;10250;50.756;6.172;2024-01-11T06:04:49;37.00;;;14.23;;
20181;SDS011;10250;50.756;6.172;2024-01-11T06:06:50;37.07;;;13.10;;
20181;SDS011;10250;50.756;6.172;2024-01-11T06:08:50;38.60;;;13.80;;
20181;SDS011;10250;50.756;6.172;2024-01-11T06:10:51;40.17;;;13.73;;
20181;SDS011;10250;50.756;6.172;2024-01-11T06:12:51;42.00;;;15.13;;
20181;SDS011;10250;50.756;6.172;2024-01-11T06:14:52;39.00;;;14.17;;
20181;SDS011;10250;50.756;6.172;2024-01-11T06:16:53;40.40;;;14.73;;
20181;SDS011;10250;50.756;6.172;2024-01-11T06:18:53;35.00;;;13.17;;
20181;SDS011;10250;50.756;6.172;2024-01-11T06:20:54;40.57;;;13.53;;
20181;SDS011;10250;50.756;6.172;2024-01-11T06:22:54;41.90;;;14.03;;
20181;SDS011;10250;50.756;6.172;2024-01-11T06:24:55;45.07;;;15.10;;
20181;SDS011;10250;50.756;6.172;2024-01-11T06:26:55;40.20;;;13.73;;
20181;SDS011;10250;50.756;6.172;2024-01-11T06:28:56;43.53;;;14.10;;
20181;SDS011;10250;50.756;6.172;2024-01-11T06:30:57;42.70;;;14.40;;
20181;SDS011;10250;50.756;6.172;2024-01-11T06:32:57;46.97;;;14.90;;
20181;SDS011;10250;50.756;6.172;2024-01-11T06:34:58;40.47;;;15.00;;
20181;SDS011;10250;50.756;6.172;2024-01-11T06:36:58;40.50;;;14.93;;
20181;SDS011;10250;50.756;6.172;2024-01-11T06:38:59;41.90;;;14.60;;
20181;SDS011;10250;50.756;6.172;2024-01-11T06:40:59;41.97;;;14.07;;
20181;SDS011;10250;50.756;6.172;2024-01-11T06:43:00;49.90;;;14.57;;
20181;SDS011;10250;50.756;6.172;2024-01-11T06:45:00;37.90;;;14.10;;
20181;SDS011;10250;50.756;6.172;2024-01-11T06:47:03;41.83;;;14.90;;
20181;SDS011;10250;50.756;6.172;2024-01-11T06:49:05;42.20;;;14.60;;
20181;SDS011;10250;50.756;6.172;2024-01-11T06:51:06;45.73;;;14.90;;
20181;SDS011;10250;50.756;6.172;2024-01-11T06:53:08;42.88;;;14.98;;
20181;SDS011;10250;50.756;6.172;2024-01-11T06:55:09;44.40;;;14.85;;
20181;SDS011;10250;50.756;6.172;2024-01-11T06:57:11;39.60;;;14.13;;
20181;SDS011;10250;50.756;6.172;2024-01-11T06:59:11;35.97;;;14.17;;
20181;SDS011;10250;50.756;6.172;2024-01-11T07:01:12;41.90;;;14.93;;
20181;SDS011;10250;50.756;6.172;2024-01-11T07:03:12;42.47;;;15.00;;
20181;SDS011;10250;50.756;6.172;2024-01-11T07:05:13;47.03;;;14.97;;
20181;SDS011;10250;50.756;6.172;2024-01-11T07:07:13;39.37;;;15.13;;
20181;SDS011;10250;50.756;6.172;2024-01-11T07:09:17;42.73;;;15.40;;
20181;SDS011;10250;50.756;6.172;2024-01-11T07:11:18;46.63;;;14.63;;
20181;SDS011;10250;50.756;6.172;2024-01-11T07:13:18;43.43;;;14.50;;
20181;SDS011;10250;50.756;6.172;2024-01-11T07:15:19;45.93;;;15.70;;
20181;SDS011;10250;50.756;6.172;2024-01-11T07:17:20;44.20;;;15.53;;
20181;SDS011;10250;50.756;6.172;2024-01-11T07:19:20;39.73;;;13.87;;
20181;SDS011;10250;50.756;6.172;2024-01-11T07:21:22;36.53;;;13.47;;
20181;SDS011;10250;50.756;6.172;2024-01-11T07:23:29;39.53;;;14.30;;
20181;SDS011;10250;50.756;6.172;2024-01-11T07:25:29;44.47;;;15.63;;
20181;SDS011;10250;50.756;6.172;2024-01-11T07:27:30;43.13;;;15.83;;
20181;SDS011;10250;50.756;6.172;2024-01-11T07:29:31;40.00;;;15.17;;
20181;SDS011;10250;50.756;6.172;2024-01-11T07:31:32;36.23;;;13.60;;
20181;SDS011;10250;50.756;6.172;2024-01-11T07:33:32;42.10;;;14.47;;
20181;SDS011;10250;50.756;6.172;2024-01-11T07:35:33;36.30;;;13.90;;
20181;SDS011;10250;50.756;6.172;2024-01-11T07:37:33;45.07;;;15.40;;
20181;SDS011;10250;50.756;6.172;2024-01-11T07:39:34;42.83;;;15.13;;
20181;SDS011;10250;50.756;6.172;2024-01-11T07:41:36;42.73;;;14.77;;
20181;SDS011;10250;50.756;6.172;2024-01-11T07:43:36;40.77;;;14.20;;
20181;SDS011;10250;50.756;6.172;2024-01-11T07:45:37;44.70;;;14.47;;
20181;SDS011;10250;50.756;6.172;2024-01-11T07:47:38;41.03;;;14.27;;
20181;SDS011;10250;50.756;6.172;2024-01-11T07:49:39;42.17;;;14.93;;
20181;SDS011;10250;50.756;6.172;2024-01-11T07:51:40;42.50;;;15.27;;
20181;SDS011;10250;50.756;6.172;2024-01-11T07:53:40;38.23;;;15.13;;
20181;SDS011;10250;50.756;6.172;2024-01-11T07:55:41;40.30;;;14.53;;
20181;SDS011;10250;50.756;6.172;2024-01-11T07:57:41;40.20;;;14.40;;
20181;SDS011;10250;50.756;6.172;2024-01-11T07:59:42;42.23;;;14.97;;
20181;SDS011;10250;50.756;6.172;2024-01-11T08:01:42;42.57;;;14.97;;
20181;SDS011;10250;50.756;6.172;2024-01-11T08:03:43;42.67;;;14.70;;
20181;SDS011;10250;50.756;6.172;2024-01-11T08:05:47;49.17;;;15.93;;
20181;SDS011;10250;50.756;6.172;2024-01-11T08:07:50;42.33;;;15.07;;
20181;SDS011;10250;50.756;6.172;2024-01-11T08:09:51;47.20;;;16.00;;
20181;SDS011;10250;50.756;6.172;2024-01-11T08:11:51;48.63;;;16.87;;
20181;SDS011;10250;50.756;6.172;2024-01-11T08:13:55;45.10;;;15.90;;
20181;SDS011;10250;50.756;6.172;2024-01-11T08:15:55;41.17;;;16.23;;
20181;SDS011;10250;50.756;6.172;2024-01-11T08:17:57;41.22;;;15.30;;
20181;SDS011;10250;50.756;6.172;2024-01-11T08:19:58;45.23;;;16.10;;
20181;SDS011;10250;50.756;6.172;2024-01-11T08:21:58;48.43;;;16.47;;
20181;SDS011;10250;50.756;6.172;2024-01-11T08:23:59;39.07;;;14.90;;
20181;SDS011;10250;50.756;6.172;2024-01-11T08:25:59;50.53;;;16.93;;
20181;SDS011;10250;50.756;6.172;2024-01-11T08:28:00;48.17;;;15.97;;
20181;SDS011;10250;50.756;6.172;2024-01-11T08:30:03;45.72;;;14.80;;
20181;SDS011;10250;50.756;6.172;2024-01-11T08:32:04;43.23;;;16.07;;
20181;SDS011;10250;50.756;6.172;2024-01-11T08:34:05;41.93;;;16.43;;
20181;SDS011;10250;50.756;6.172;2024-01-11T08:36:05;42.83;;;16.27;;
20181;SDS011;10250;50.756;6.172;2024-01-11T08:38:06;42.47;;;15.80;;
20181;SDS011;10250;50.756;6.172;2024-01-11T08:40:07;45.53;;;16.67;;
20181;SDS011;10250;50.756;6.172;2024-01-11T08:42:09;41.97;;;14.27;;
20181;SDS011;10250;50.756;6.172;2024-01-11T08:44:10;36.37;;;14.47;;
20181;SDS011;10250;50.756;6.172;2024-01-11T08:46:10;42.57;;;14.80;;
20181;SDS011;10250;50.756;6.172;2024-01-11T08:48:11;43.80;;;15.57;;
20181;SDS011;10250;50.756;6.172;2024-01-11T08:50:12;46.73;;;15.93;;
20181;SDS011;10250;50.756;6.172;2024-01-11T08:52:14;45.87;;;16.13;;
20181;SDS011;10250;50.756;6.172;2024-01-11T08:54:14;54.30;;;16.57;;
20181;SDS011;10250;50.756;6.172;2024-01-11T08:56:16;42.50;;;15.57;;
20181;SDS011;10250;50.756;6.172;2024-01-11T08:58:17;40.87;;;16.07;;
20181;SDS011;10250;50.756;6.172;2024-01-11T09:00:17;45.13;;;16.47;;
20181;SDS011;10250;50.756;6.172;2024-01-11T09:02:18;46.57;;;16.87;;
20181;SDS011;10250;50.756;6.172;2024-01-11T09:04:19;46.93;;;17.90;;
20181;SDS011;10250;50.756;6.172;2024-01-11T09:06:19;47.73;;;16.27;;
20181;SDS011;10250;50.756;6.172;2024-01-11T09:08:20;42.70;;;17.03;;
20181;SDS011;10250;50.756;6.172;2024-01-11T09:10:20;50.33;;;17.90;;
20181;SDS011;10250;50.756;6.172;2024-01-11T09:12:21;45.97;;;18.20;;
20181;SDS011;10250;50.756;6.172;2024-01-11T09:14:22;48.87;;;17.90;;
20181;SDS011;10250;50.756;6.172;2024-01-11T09:16:22;51.97;;;19.47;;
20181;SDS011;10250;50.756;6.172;2024-01-11T09:18:23;55.70;;;20.17;;
20181;SDS011;10250;50.756;6.172;2024-01-11T09:20:24;50.00;;;19.97;;
20181;SDS011;10250;50.756;6.172;2024-01-11T09:22:24;54.53;;;19.60;;
20181;SDS011;10250;50.756;6.172;2024-01-11T09:24:25;44.47;;;17.80;;
20181;SDS011;10250;50.756;6.172;2024-01-11T09:26:26;53.97;;;19.60;;
20181;SDS011;10250;50.756;6.172;2024-01-11T09:28:27;57.50;;;19.60;;
20181;SDS011;10250;50.756;6.172;2024-01-11T09:30:27;43.97;;;18.67;;
20181;SDS011;10250;50.756;6.172;2024-01-11T09:32:28;55.07;;;19.17;;
20181;SDS011;10250;50.756;6.172;2024-01-11T09:34:28;54.57;;;19.83;;
20181;SDS011;10250;50.756;6.172;2024-01-11T09:36:29;52.97;;;20.00;;
20181;SDS011;10250;50.756;6.172;2024-01-11T09:38:29;48.30;;;18.43;;
20181;SDS011;10250;50.756;6.172;2024-01-11T09:40:30;50.40;;;19.10;;
20181;SDS011;10250;50.756;6.172;2024-01-11T09:42:31;51.23;;;19.63;;
20181;SDS011;10250;50.756;6.172;2024-01-11T09:44:33;46.50;;;19.37;;
20181;SDS011;10250;50.756;6.172;2024-01-11T09:46:34;51.20;;;19.87;;
20181;SDS011;10250;50.756;6.172;2024-01-11T09:48:35;51.50;;;20.70;;
20181;SDS011;10250;50.756;6.172;2024-01-11T09:50:38;52.10;;;18.93;;
20181;SDS011;10250;50.756;6.172;2024-01-11T09:52:39;55.33;;;19.93;;
20181;SDS011;10250;50.756;6.172;2024-01-11T09:54:42;50.60;;;19.37;;
20181;SDS011;10250;50.756;6.172;2024-01-11T09:56:43;47.90;;;19.13;;
20181;SDS011;10250;50.756;6.172;2024-01-11T09:58:45;53.87;;;19.90;;
20181;SDS011;10250;50.756;6.172;2024-01-11T10:00:52;59.07;;;19.40;;
20181;SDS011;10250;50.756;6.172;2024-01-11T10:02:55;54.93;;;20.90;;
20181;SDS011;10250;50.756;6.172;2024-01-11T10:04:55;54.87;;;20.00;;
20181;SDS011;10250;50.756;6.172;2024-01-11T10:06:56;58.57;;;19.60;;
20181;SDS011;10250;50.756;6.172;2024-01-11T10:08:57;59.13;;;19.97;;
20181;SDS011;10250;50.756;6.172;2024-01-11T10:10:58;55.67;;;19.87;;
20181;SDS011;10250;50.756;6.172;2024-01-11T10:12:58;48.43;;;20.23;;
20181;SDS011;10250;50.756;6.172;2024-01-11T10:15:09;60.17;;;19.87;;
20181;SDS011;10250;50.756;6.172;2024-01-11T10:17:11;51.97;;;19.00;;
20181;SDS011;10250;50.756;6.172;2024-01-11T10:19:12;53.50;;;20.70;;
20181;SDS011;10250;50.756;6.172;2024-01-11T10:21:13;56.37;;;21.17;;
20181;SDS011;10250;50.756;6.172;2024-01-11T10:23:14;53.83;;;19.53;;
20181;SDS011;10250;50.756;6.172;2024-01-11T10:25:15;53.53;;;19.37;;
20181;SDS011;10250;50.756;6.172;2024-01-11T10:27:17;58.90;;;19.07;;
20181;SDS011;10250;50.756;6.172;2024-01-11T10:29:18;51.83;;;19.67;;
20181;SDS011;10250;50.756;6.172;2024-01-11T10:31:18;53.17;;;19.00;;
20181;SDS011;10250;50.756;6.172;2024-01-11T10:33:24;48.93;;;19.50;;
20181;SDS011;10250;50.756;6.172;2024-01-11T10:35:25;55.53;;;20.43;;
20181;SDS011;10250;50.756;6.172;2024-01-11T10:37:25;49.17;;;19.47;;
20181;SDS011;10250;50.756;6.172;2024-01-11T10:39:28;54.00;;;20.90;;
20181;SDS011;10250;50.756;6.172;2024-01-11T10:41:29;51.33;;;20.97;;
20181;SDS011;10250;50.756;6.172;2024-01-11T10:43:40;49.00;;;19.80;;
20181;SDS011;10250;50.756;6.172;2024-01-11T10:45:41;57.57;;;21.03;;
20181;SDS011;10250;50.756;6.172;2024-01-11T10:49:52;54.30;;;21.47;;
20181;SDS011;10250;50.756;6.172;2024-01-11T10:51:57;49.57;;;19.87;;
20181;SDS011;10250;50.756;6.172;2024-01-11T10:54:00;52.40;;;21.50;;
20181;SDS011;10250;50.756;6.172;2024-01-11T10:56:02;53.93;;;22.17;;
20181;SDS011;10250;50.756;6.172;2024-01-11T10:58:04;51.97;;;21.90;;
20181;SDS011;10250;50.756;6.172;2024-01-11T11:00:05;58.57;;;21.07;;
20181;SDS011;10250;50.756;6.172;2024-01-11T11:02:06;55.77;;;20.30;;
20181;SDS011;10250;50.756;6.172;2024-01-11T11:04:12;58.37;;;21.90;;
20181;SDS011;10250;50.756;6.172;2024-01-11T11:06:15;52.70;;;20.93;;
20181;SDS011;10250;50.756;6.172;2024-01-11T11:08:19;52.43;;;20.17;;
20181;SDS011;10250;50.756;6.172;2024-01-11T11:10:21;50.23;;;21.50;;
20181;SDS011;10250;50.756;6.172;2024-01-11T11:12:22;58.83;;;21.37;;
20181;SDS011;10250;50.756;6.172;2024-01-11T11:14:23;55.90;;;21.33;;
20181;SDS011;10250;50.756;6.172;2024-01-11T11:16:25;61.23;;;22.63;;
20181;SDS011;10250;50.756;6.172;2024-01-11T11:18:26;56.47;;;21.30;;
20181;SDS011;10250;50.756;6.172;2024-01-11T11:20:26;56.50;;;20.60;;
20181;SDS011;10250;50.756;6.172;2024-01-11T11:22:27;52.23;;;20.00;;
20181;SDS011;10250;50.756;6.172;2024-01-11T11:24:34;56.53;;;21.67;;
20181;SDS011;10250;50.756;6.172;2024-01-11T11:26:35;57.07;;;21.87;;
20181;SDS011;10250;50.756;6.172;2024-01-11T11:28:36;57.80;;;22.03;;
20181;SDS011;10250;50.756;6.172;2024-01-11T11:30:37;56.20;;;22.87;;
20181;SDS011;10250;50.756;6.172;2024-01-11T11:32:43;61.53;;;22.67;;
20181;SDS011;10250;50.756;6.172;2024-01-11T11:34:44;60.63;;;23.20;;
20181;SDS011;10250;50.756;6.172;2024-01-11T11:36:46;58.23;;;23.43;;
20181;SDS011;10250;50.756;6.172;2024-01-11T11:38:49;48.80;;;21.30;;
20181;SDS011;10250;50.756;6.172;2024-01-11T11:40:51;56.37;;;22.67;;
20181;SDS011;10250;50.756;6.172;2024-01-11T11:42:53;58.17;;;23.30;;
20181;SDS011;10250;50.756;6.172;2024-01-11T11:44:54;61.40;;;22.20;;
20181;SDS011;10250;50.756;6.172;2024-01-11T11:46:54;58.07;;;22.40;;
20181;SDS011;10250;50.756;6.172;2024-01-11T11:48:55;52.57;;;21.60;;
20181;SDS011;10250;50.756;6.172;2024-01-11T11:53:05;59.33;;;22.07;;